createdAt,value
2018-12-22T00:01:16.832Z,2.40
2018-12-22T00:03:43.513Z,2.40
2018-12-22T00:06:10.196Z,2.95
2018-12-22T00:08:36.841Z,2.40
2018-12-22T00:11:03.606Z,2.60
2018-12-22T00:13:30.288Z,2.33
2018-12-22T00:15:56.962Z,2.47
2018-12-22T00:18:23.625Z,3.10
2018-12-22T00:20:50.281Z,2.80
2018-12-22T00:23:16.962Z,2.50
2018-12-22T00:25:43.613Z,2.70
2018-12-22T00:28:10.269Z,2.70
2018-12-22T00:30:36.951Z,2.47
2018-12-22T00:33:03.598Z,2.67
2018-12-22T00:35:30.267Z,2.37
2018-12-22T00:37:56.936Z,2.45
2018-12-22T00:40:23.664Z,2.62
2018-12-22T00:42:50.358Z,2.40
2018-12-22T00:45:17.027Z,2.35
2018-12-22T00:47:43.681Z,2.60
2018-12-22T00:50:10.374Z,2.75
2018-12-22T00:52:37.025Z,2.70
2018-12-22T00:55:03.971Z,2.80
2018-12-22T00:57:30.658Z,2.90
2018-12-22T00:59:57.314Z,2.60
2018-12-22T01:02:23.969Z,2.42
2018-12-22T01:04:50.632Z,2.62
2018-12-22T01:07:17.294Z,2.50
2018-12-22T01:09:43.980Z,2.42
2018-12-22T01:12:10.645Z,2.50
2018-12-22T01:14:37.330Z,2.60
2018-12-22T01:17:04.006Z,2.70
2018-12-22T01:19:30.742Z,2.98
2018-12-22T01:21:57.389Z,2.50
2018-12-22T01:24:24.066Z,2.50
2018-12-22T01:26:50.720Z,2.70
2018-12-22T01:29:17.490Z,2.50
2018-12-22T01:31:44.158Z,2.70
2018-12-22T01:34:10.868Z,2.58
2018-12-22T01:36:37.522Z,2.70
2018-12-22T01:39:05.160Z,2.75
2018-12-22T01:41:31.838Z,2.60
2018-12-22T01:43:58.493Z,2.60
2018-12-22T01:46:25.170Z,3.25
2018-12-22T01:48:51.820Z,2.35
2018-12-22T01:51:18.466Z,2.40
2018-12-22T01:53:45.137Z,2.52
2018-12-22T01:56:11.795Z,2.67
2018-12-22T01:58:38.469Z,2.60
2018-12-22T02:01:05.114Z,2.80
2018-12-22T02:03:31.855Z,3.25
2018-12-22T02:05:58.520Z,2.75
2018-12-22T02:08:25.164Z,2.65
2018-12-22T02:10:51.829Z,2.90
2018-12-22T02:13:18.485Z,2.90
2018-12-22T02:15:45.134Z,2.40
2018-12-22T02:18:11.814Z,2.80
2018-12-22T02:20:38.479Z,3.10
2018-12-22T02:23:05.141Z,2.60
2018-12-22T02:25:31.814Z,2.62
2018-12-22T02:27:58.474Z,2.70
2018-12-22T02:30:25.161Z,2.80
2018-12-22T02:32:51.989Z,3.35
2018-12-22T02:35:18.642Z,2.70
2018-12-22T02:37:45.326Z,2.47
2018-12-22T02:40:11.975Z,2.83
2018-12-22T02:42:38.634Z,2.85
2018-12-22T02:45:05.310Z,3.22
2018-12-22T02:47:31.987Z,2.50
2018-12-22T02:49:58.674Z,2.75
2018-12-22T02:52:25.327Z,2.80
2018-12-22T02:54:51.978Z,2.70
2018-12-22T02:57:18.648Z,2.90
2018-12-22T02:59:45.307Z,2.42
2018-12-22T03:02:11.978Z,3.05
2018-12-22T03:04:38.724Z,3.40
2018-12-22T03:07:05.390Z,2.87
2018-12-22T03:09:32.072Z,3.10
2018-12-22T03:11:58.719Z,3.00
2018-12-22T03:14:25.372Z,2.85
2018-12-22T03:16:52.059Z,2.70
2018-12-22T03:19:18.722Z,2.87
2018-12-22T03:21:45.393Z,2.77
2018-12-22T03:24:12.042Z,2.80
2018-12-22T03:26:38.709Z,2.98
2018-12-22T03:29:05.404Z,2.60
2018-12-22T03:31:32.088Z,3.10
2018-12-22T03:33:58.869Z,2.72
2018-12-22T03:36:25.530Z,2.75
2018-12-22T03:38:52.271Z,2.90
2018-12-22T03:41:18.939Z,2.50
2018-12-22T03:43:45.605Z,2.75
2018-12-22T03:46:12.267Z,2.67
2018-12-22T03:48:38.940Z,3.12
2018-12-22T03:51:05.603Z,2.80
2018-12-22T03:53:32.283Z,2.85
2018-12-22T03:55:58.935Z,2.72
2018-12-22T03:58:25.586Z,2.75
2018-12-22T04:00:52.257Z,2.60
2018-12-22T04:03:18.917Z,2.25
2018-12-22T04:05:45.623Z,3.05
2018-12-22T04:08:12.365Z,2.85
2018-12-22T04:10:39.023Z,2.70
2018-12-22T04:13:05.693Z,2.70
2018-12-22T04:15:32.347Z,2.70
2018-12-22T04:17:59.109Z,2.52
2018-12-22T04:20:25.780Z,3.20
2018-12-22T04:22:52.435Z,2.62
2018-12-22T04:25:19.104Z,2.40
2018-12-22T04:27:45.783Z,2.45
2018-12-22T04:30:12.449Z,2.50
2018-12-22T04:32:39.111Z,2.77
2018-12-22T04:35:05.785Z,2.77
2018-12-22T04:37:32.444Z,2.80
2018-12-22T04:39:59.089Z,2.65
2018-12-22T04:42:25.782Z,2.95
2018-12-22T04:44:52.435Z,2.70
2018-12-22T04:47:19.092Z,2.60
2018-12-22T04:49:45.766Z,3.00
2018-12-22T04:52:12.422Z,2.80
2018-12-22T04:54:39.091Z,2.80
2018-12-22T04:57:05.751Z,2.70
2018-12-22T04:59:32.402Z,2.95
2018-12-22T05:01:59.078Z,3.27
2018-12-22T05:04:25.727Z,2.67
2018-12-22T05:06:52.393Z,2.98
2018-12-22T05:09:19.043Z,2.95
2018-12-22T05:11:45.741Z,2.80
2018-12-22T05:14:12.390Z,2.70
2018-12-22T05:16:39.061Z,2.80
2018-12-22T05:19:05.708Z,2.70
2018-12-22T05:21:32.360Z,2.80
2018-12-22T05:23:59.042Z,2.37
2018-12-22T05:26:25.701Z,2.85
2018-12-22T05:28:52.361Z,2.35
2018-12-22T05:31:19.035Z,2.60
2018-12-22T05:33:45.686Z,2.80
2018-12-22T05:36:12.368Z,2.55
2018-12-22T05:38:39.021Z,2.83
2018-12-22T05:41:05.672Z,2.52
2018-12-22T05:43:32.342Z,2.60
2018-12-22T05:45:59.019Z,2.85
2018-12-22T05:48:25.668Z,3.30
2018-12-22T05:50:52.316Z,2.90
2018-12-22T05:53:18.995Z,2.65
2018-12-22T05:55:45.645Z,2.52
2018-12-22T05:58:12.310Z,2.80
2018-12-22T06:00:38.988Z,2.62
2018-12-22T06:03:05.663Z,2.67
2018-12-22T06:05:32.323Z,3.45
2018-12-22T06:07:58.985Z,2.50
2018-12-22T06:10:25.662Z,2.50
2018-12-22T06:12:52.314Z,2.80
2018-12-22T06:15:18.986Z,2.58
2018-12-22T06:17:45.674Z,2.50
2018-12-22T06:20:12.418Z,2.50
2018-12-22T06:22:39.085Z,2.75
2018-12-22T06:25:05.730Z,2.42
2018-12-22T06:27:32.380Z,2.47
2018-12-22T06:29:59.054Z,2.33
2018-12-22T06:32:25.696Z,2.40
2018-12-22T06:34:52.344Z,2.27
2018-12-22T06:37:19.018Z,2.50
2018-12-22T06:39:45.679Z,2.70
2018-12-22T06:42:12.362Z,2.70
2018-12-22T06:44:39.026Z,2.37
2018-12-22T06:47:05.675Z,2.58
2018-12-22T06:49:32.355Z,2.85
2018-12-22T06:51:59.007Z,2.72
2018-12-22T06:54:25.664Z,2.37
2018-12-22T06:56:52.445Z,2.50
2018-12-22T06:59:19.100Z,2.27
2018-12-22T07:01:45.754Z,2.80
2018-12-22T07:04:12.422Z,2.40
2018-12-22T07:06:39.130Z,2.58
2018-12-22T07:09:06.194Z,2.12
2018-12-22T07:11:32.850Z,2.80
2018-12-22T07:13:59.488Z,2.50
2018-12-22T07:16:26.157Z,2.45
2018-12-22T07:18:52.821Z,2.52
2018-12-22T07:21:19.494Z,2.77
2018-12-22T07:23:46.262Z,2.50
2018-12-22T07:26:12.909Z,3.20
2018-12-22T07:28:39.585Z,2.58
2018-12-22T07:31:06.243Z,2.70
2018-12-22T07:33:32.888Z,2.85
2018-12-22T07:35:59.557Z,2.92
2018-12-22T07:38:26.209Z,3.40
2018-12-22T07:40:52.890Z,3.45
2018-12-22T07:43:19.578Z,3.30
2018-12-22T07:45:46.225Z,3.20
2018-12-22T07:48:12.908Z,3.20
2018-12-22T07:50:39.566Z,3.10
2018-12-22T07:53:06.246Z,3.65
2018-12-22T07:55:32.908Z,3.17
2018-12-22T07:57:59.644Z,3.15
2018-12-22T08:00:34.566Z,3.00
2018-12-22T08:02:55.041Z,2.90
2018-12-22T08:05:21.697Z,3.47
2018-12-22T08:07:48.369Z,2.77
2018-12-22T08:10:15.026Z,3.25
2018-12-22T08:12:41.712Z,2.90
2018-12-22T08:15:08.374Z,3.37
2018-12-22T08:17:35.037Z,2.85
2018-12-22T08:20:01.799Z,2.52
2018-12-22T08:22:28.479Z,2.65
2018-12-22T08:24:55.137Z,2.50
2018-12-22T08:27:21.802Z,2.67
2018-12-22T08:29:48.470Z,2.45
2018-12-22T08:32:15.127Z,2.70
2018-12-22T08:34:41.797Z,2.60
2018-12-22T08:37:08.476Z,2.45
2018-12-22T08:39:35.125Z,2.70
2018-12-22T08:42:01.782Z,2.90
2018-12-22T08:44:28.466Z,2.45
2018-12-22T08:46:55.118Z,2.50
2018-12-22T08:49:21.789Z,2.70
2018-12-22T08:51:48.434Z,2.40
2018-12-22T08:54:15.085Z,2.70
2018-12-22T08:56:41.770Z,2.10
2018-12-22T08:59:08.427Z,2.35
2018-12-22T09:01:35.087Z,2.55
2018-12-22T09:04:01.771Z,2.30
2018-12-22T09:06:28.412Z,2.52
2018-12-22T09:08:55.080Z,2.30
2018-12-22T09:11:21.733Z,2.62
2018-12-22T09:13:48.388Z,2.15
2018-12-22T09:16:15.964Z,2.40
2018-12-22T09:18:42.617Z,2.10
2018-12-22T09:21:09.286Z,2.10
2018-12-22T09:23:35.954Z,2.25
2018-12-22T09:26:02.632Z,2.30
2018-12-22T09:28:29.278Z,2.10
2018-12-22T09:31:00.704Z,2.35
2018-12-22T09:33:24.645Z,2.25
2018-12-22T09:35:51.309Z,2.52
2018-12-22T09:38:17.959Z,2.80
2018-12-22T09:40:44.633Z,2.12
2018-12-22T09:43:11.290Z,2.72
2018-12-22T09:45:37.953Z,2.30
2018-12-22T09:48:04.628Z,1.80
2018-12-22T09:50:31.280Z,2.00
2018-12-22T09:52:57.934Z,2.25
2018-12-22T09:55:24.600Z,2.00
2018-12-22T09:57:51.253Z,2.12
2018-12-22T10:00:17.902Z,2.27
2018-12-22T10:02:44.578Z,2.77
2018-12-22T10:05:11.237Z,1.90
2018-12-22T10:07:37.911Z,2.40
2018-12-22T10:10:06.541Z,2.30
2018-12-22T10:12:33.188Z,2.15
2018-12-22T10:14:59.882Z,1.87
2018-12-22T10:17:26.537Z,1.82
2018-12-22T10:19:53.274Z,2.02
2018-12-22T10:22:19.927Z,1.75
2018-12-22T10:24:46.590Z,1.98
2018-12-22T10:27:13.268Z,1.90
2018-12-22T10:29:39.914Z,1.95
2018-12-22T10:32:06.561Z,2.00
2018-12-22T10:34:33.237Z,1.98
2018-12-22T10:36:59.890Z,1.95
2018-12-22T10:39:26.569Z,1.98
2018-12-22T10:41:53.229Z,2.10
2018-12-22T10:44:19.897Z,1.90
2018-12-22T10:46:46.569Z,2.10
2018-12-22T10:49:13.226Z,2.30
2018-12-22T10:51:39.872Z,2.17
2018-12-22T10:54:06.546Z,2.10
2018-12-22T10:56:33.185Z,2.80
2018-12-22T10:58:59.906Z,2.30
2018-12-22T11:01:26.959Z,2.10
2018-12-22T11:03:53.865Z,2.12
2018-12-22T11:06:20.508Z,2.40
2018-12-22T11:08:47.177Z,2.30
2018-12-22T11:11:13.836Z,2.70
2018-12-22T11:13:40.485Z,2.67
2018-12-22T11:16:07.163Z,3.50
2018-12-22T11:18:33.808Z,3.50
2018-12-22T11:21:00.461Z,4.35
2018-12-22T11:23:27.138Z,5.45
2018-12-22T11:25:53.802Z,5.10
2018-12-22T11:28:20.463Z,8.40
2018-12-22T11:30:47.141Z,6.90
2018-12-22T11:33:13.796Z,5.70
2018-12-22T11:35:40.459Z,5.30
2018-12-22T11:38:07.143Z,4.97
2018-12-22T11:40:33.792Z,5.00
2018-12-22T11:43:00.449Z,5.10
2018-12-22T11:45:27.135Z,4.30
2018-12-22T11:47:53.975Z,4.10
2018-12-22T11:50:22.599Z,4.08
2018-12-22T11:52:49.301Z,5.10
2018-12-22T11:55:15.958Z,5.67
2018-12-22T11:57:42.624Z,6.05
2018-12-22T12:00:09.759Z,4.50
2018-12-22T12:02:36.447Z,4.05
2018-12-22T12:05:04.085Z,4.40
2018-12-22T12:07:30.741Z,4.42
2018-12-22T12:09:57.413Z,4.10
2018-12-22T12:12:24.078Z,3.62
2018-12-22T12:14:50.730Z,3.60
2018-12-22T12:17:19.265Z,5.10
2018-12-22T12:19:45.917Z,3.98
2018-12-22T12:22:12.565Z,3.67
2018-12-22T12:24:39.233Z,4.25
2018-12-22T12:27:05.883Z,3.62
2018-12-22T12:29:32.554Z,3.67
2018-12-22T12:31:59.198Z,4.05
2018-12-22T12:34:25.937Z,4.45
2018-12-22T12:36:52.603Z,3.85
2018-12-22T12:39:19.259Z,4.10
2018-12-22T12:41:45.938Z,3.60
2018-12-22T12:44:12.591Z,4.08
2018-12-22T12:46:39.329Z,4.22
2018-12-22T12:49:06.019Z,3.50
2018-12-22T12:51:32.812Z,3.52
2018-12-22T12:53:59.470Z,3.60
2018-12-22T12:56:26.214Z,3.30
2018-12-22T12:58:52.879Z,2.65
2018-12-22T13:01:19.537Z,2.35
2018-12-22T13:03:46.210Z,2.75
2018-12-22T13:06:12.862Z,2.70
2018-12-22T13:08:39.537Z,3.22
2018-12-22T13:11:06.198Z,2.92
2018-12-22T13:13:35.486Z,2.80
2018-12-22T13:16:02.143Z,2.95
2018-12-22T13:18:28.805Z,3.30
2018-12-22T13:20:55.472Z,2.70
2018-12-22T13:23:22.124Z,3.45
2018-12-22T13:25:48.803Z,3.45
2018-12-22T13:28:15.461Z,2.92
2018-12-22T13:30:42.159Z,3.15
2018-12-22T13:33:09.256Z,3.08
2018-12-22T13:35:35.989Z,3.47
2018-12-22T13:38:02.666Z,3.10
2018-12-22T13:40:29.326Z,3.22
2018-12-22T13:42:56.000Z,3.25
2018-12-22T13:45:22.653Z,2.60
2018-12-22T13:47:49.428Z,3.15
2018-12-22T13:50:16.596Z,2.70
2018-12-22T13:52:43.882Z,3.25
2018-12-22T13:55:10.557Z,3.20
2018-12-22T13:57:39.880Z,3.60
2018-12-22T14:00:12.213Z,3.75
2018-12-22T14:02:38.874Z,3.62
2018-12-22T14:05:07.503Z,3.62
2018-12-22T14:07:34.193Z,4.15
2018-12-22T14:10:00.850Z,4.72
2018-12-22T14:12:27.512Z,4.37
2018-12-22T14:14:54.179Z,4.20
2018-12-22T14:17:20.854Z,5.10
2018-12-22T14:19:47.497Z,4.45
2018-12-22T14:22:14.175Z,4.30
2018-12-22T14:24:43.044Z,4.10
2018-12-22T14:27:09.527Z,4.05
2018-12-22T14:29:36.247Z,3.85
2018-12-22T14:32:02.895Z,4.50
2018-12-22T14:34:29.626Z,4.17
2018-12-22T14:36:56.274Z,3.85
2018-12-22T14:39:22.931Z,3.80
2018-12-22T14:41:49.609Z,3.67
2018-12-22T14:44:16.271Z,4.65
2018-12-22T14:46:42.945Z,3.72
2018-12-22T14:49:09.601Z,4.40
2018-12-22T14:51:36.257Z,3.40
2018-12-22T14:54:02.921Z,4.33
2018-12-22T14:56:32.467Z,4.15
2018-12-22T14:58:59.144Z,3.33
2018-12-22T15:01:25.799Z,4.75
2018-12-22T15:03:52.450Z,3.67
2018-12-22T15:06:19.132Z,3.62
2018-12-22T15:08:45.785Z,4.62
2018-12-22T15:11:12.456Z,4.20
2018-12-22T15:13:39.106Z,4.30
2018-12-22T15:16:05.770Z,4.28
2018-12-22T15:18:32.453Z,4.30
2018-12-22T15:20:59.105Z,4.20
2018-12-22T15:23:25.761Z,4.90
2018-12-22T15:25:52.437Z,4.78
2018-12-22T15:28:19.114Z,5.87
2018-12-22T15:30:46.726Z,5.70
2018-12-22T15:33:13.541Z,5.00
2018-12-22T15:35:40.218Z,5.12
2018-12-22T15:38:06.865Z,5.97
2018-12-22T15:40:33.521Z,5.60
2018-12-22T15:43:00.190Z,4.92
2018-12-22T15:45:26.844Z,5.22
2018-12-22T15:47:53.499Z,5.25
2018-12-22T15:50:26.999Z,5.45
2018-12-22T15:52:54.134Z,4.50
2018-12-22T15:55:20.793Z,5.90
2018-12-22T15:57:47.456Z,5.92
2018-12-22T16:00:14.105Z,6.25
2018-12-22T16:02:40.763Z,6.70
2018-12-22T16:05:09.462Z,6.35
2018-12-22T16:07:36.145Z,8.73
2018-12-22T16:10:04.198Z,9.85
2018-12-22T16:12:30.853Z,11.03
2018-12-22T16:14:57.524Z,8.95
2018-12-22T16:17:24.185Z,6.70
2018-12-22T16:19:50.866Z,7.53
2018-12-22T16:22:17.527Z,7.97
2018-12-22T16:24:44.190Z,7.60
2018-12-22T16:27:10.870Z,7.47
2018-12-22T16:29:37.528Z,6.67
2018-12-22T16:32:04.181Z,7.17
2018-12-22T16:34:30.861Z,6.25
2018-12-22T16:36:57.523Z,6.58
2018-12-22T16:39:24.183Z,8.70
2018-12-22T16:41:50.862Z,8.38
2018-12-22T16:44:17.612Z,6.55
2018-12-22T16:46:44.294Z,6.47
2018-12-22T16:49:10.990Z,5.72
2018-12-22T16:51:37.652Z,5.40
2018-12-22T16:54:04.368Z,5.53
2018-12-22T16:56:31.025Z,6.08
2018-12-22T16:58:57.751Z,5.10
2018-12-22T17:01:26.213Z,5.50
2018-12-22T17:03:52.863Z,7.25
2018-12-22T17:06:19.520Z,7.50
2018-12-22T17:08:46.191Z,7.72
2018-12-22T17:11:12.836Z,7.50
2018-12-22T17:13:39.885Z,7.33
2018-12-22T17:16:06.536Z,6.90
2018-12-22T17:18:33.217Z,10.20
2018-12-22T17:21:01.900Z,5.97
2018-12-22T17:23:30.637Z,6.55
2018-12-22T17:25:58.184Z,6.17
2018-12-22T17:28:28.556Z,6.80
2018-12-22T17:30:53.526Z,6.33
2018-12-22T17:33:20.197Z,7.78
2018-12-22T17:35:46.891Z,6.83
2018-12-22T17:38:13.537Z,5.85
2018-12-22T17:40:40.227Z,7.15
2018-12-22T17:43:06.948Z,5.85
2018-12-22T17:45:33.603Z,6.95
2018-12-22T17:48:00.274Z,7.40
2018-12-22T17:50:26.939Z,6.40
2018-12-22T17:52:53.612Z,8.10
2018-12-22T17:55:20.352Z,6.05
2018-12-22T17:57:47.006Z,6.85
2018-12-22T18:00:13.853Z,6.62
2018-12-22T18:02:42.485Z,5.95
2018-12-22T18:05:09.174Z,5.00
2018-12-22T18:07:35.832Z,4.65
2018-12-22T18:10:02.761Z,5.28
2018-12-22T18:12:29.452Z,5.22
2018-12-22T18:14:56.101Z,5.45
2018-12-22T18:17:22.748Z,4.62
2018-12-22T18:19:49.417Z,5.10
2018-12-22T18:22:16.075Z,4.53
2018-12-22T18:24:42.733Z,4.75
2018-12-22T18:27:09.410Z,4.65
2018-12-22T18:29:36.068Z,4.80
2018-12-22T18:32:02.723Z,4.53
2018-12-22T18:34:29.388Z,5.35
2018-12-22T18:36:56.075Z,4.80
2018-12-22T18:39:22.807Z,6.42
2018-12-22T18:41:49.478Z,4.92
2018-12-22T18:44:16.122Z,5.40
2018-12-22T18:46:42.804Z,5.37
2018-12-22T18:49:09.464Z,5.58
2018-12-22T18:51:36.126Z,4.75
2018-12-22T18:54:02.794Z,5.40
2018-12-22T18:56:29.458Z,4.95
2018-12-22T18:58:56.414Z,4.70
2018-12-22T19:01:23.089Z,6.08
2018-12-22T19:03:49.743Z,5.85
2018-12-22T19:06:16.432Z,5.55
2018-12-22T19:08:43.096Z,5.60
2018-12-22T19:11:09.752Z,5.00
2018-12-22T19:13:36.417Z,5.90
2018-12-22T19:16:03.241Z,4.75
2018-12-22T19:18:29.922Z,4.90
2018-12-22T19:20:56.572Z,5.20
2018-12-22T19:23:23.256Z,4.62
2018-12-22T19:25:49.916Z,4.25
2018-12-22T19:28:16.573Z,4.15
2018-12-22T19:30:44.485Z,4.80
2018-12-22T19:33:11.316Z,5.12
2018-12-22T19:35:37.994Z,4.40
2018-12-22T19:38:04.654Z,4.33
2018-12-22T19:40:31.311Z,4.33
2018-12-22T19:42:57.990Z,4.78
2018-12-22T19:45:24.650Z,5.87
2018-12-22T19:47:51.329Z,5.15
2018-12-22T19:50:17.970Z,4.97
2018-12-22T19:52:44.629Z,7.45
2018-12-22T19:55:11.294Z,5.92
2018-12-22T19:57:38.074Z,4.85
2018-12-22T20:00:05.235Z,4.53
2018-12-22T20:02:31.889Z,5.35
2018-12-22T20:04:58.546Z,5.05
2018-12-22T20:07:25.221Z,5.33
2018-12-22T20:09:51.869Z,5.33
2018-12-22T20:12:18.517Z,4.80
2018-12-22T20:14:45.194Z,4.70
2018-12-22T20:17:11.858Z,5.17
2018-12-22T20:19:38.522Z,5.47
2018-12-22T20:22:05.202Z,5.20
2018-12-22T20:24:31.861Z,4.30
2018-12-22T20:26:58.543Z,5.45
2018-12-22T20:29:25.190Z,5.47
2018-12-22T20:31:51.865Z,4.30
2018-12-22T20:34:18.510Z,5.10
2018-12-22T20:36:45.166Z,4.95
2018-12-22T20:39:11.843Z,5.15
2018-12-22T20:41:38.488Z,5.53
2018-12-22T20:44:05.149Z,5.25
2018-12-22T20:46:31.866Z,6.35
2018-12-22T20:48:58.513Z,4.83
2018-12-22T20:51:25.167Z,5.10
2018-12-22T20:53:51.838Z,4.62
2018-12-22T20:56:18.622Z,5.10
2018-12-22T20:58:45.276Z,5.85
2018-12-22T21:01:12.000Z,4.87
2018-12-22T21:03:39.242Z,5.80
2018-12-22T21:06:07.277Z,4.95
2018-12-22T21:08:33.930Z,5.40
2018-12-22T21:11:00.603Z,5.72
2018-12-22T21:13:27.255Z,4.55
2018-12-22T21:15:54.045Z,5.00
2018-12-22T21:18:20.710Z,4.60
2018-12-22T21:20:47.362Z,5.30
2018-12-22T21:23:14.041Z,5.85
2018-12-22T21:25:40.690Z,4.47
2018-12-22T21:28:07.365Z,4.22
2018-12-22T21:30:34.018Z,4.37
2018-12-22T21:33:00.750Z,3.75
2018-12-22T21:35:27.454Z,4.15
2018-12-22T21:37:54.100Z,4.10
2018-12-22T21:40:20.772Z,4.20
2018-12-22T21:42:47.430Z,4.80
2018-12-22T21:45:14.082Z,4.50
2018-12-22T21:47:40.757Z,4.17
2018-12-22T21:50:07.403Z,3.47
2018-12-22T21:52:34.062Z,4.85
2018-12-22T21:55:00.742Z,3.60
2018-12-22T21:57:27.401Z,3.92
2018-12-22T21:59:54.076Z,5.00
2018-12-22T22:02:20.761Z,4.12
2018-12-22T22:04:47.425Z,4.60
2018-12-22T22:07:14.078Z,4.65
2018-12-22T22:09:40.757Z,4.92
2018-12-22T22:12:07.641Z,5.30
2018-12-22T22:14:34.284Z,5.25
2018-12-22T22:17:00.958Z,4.83
2018-12-22T22:19:27.692Z,4.45
2018-12-22T22:21:54.380Z,5.00
2018-12-22T22:24:21.070Z,5.03
2018-12-22T22:26:47.725Z,4.28
2018-12-22T22:29:14.397Z,4.40
2018-12-22T22:31:41.046Z,4.58
2018-12-22T22:34:07.726Z,7.80
2018-12-22T22:36:34.386Z,4.10
2018-12-22T22:39:01.052Z,4.35
2018-12-22T22:41:27.735Z,4.53
2018-12-22T22:43:54.387Z,4.20
2018-12-22T22:46:21.036Z,5.08
2018-12-22T22:48:47.708Z,3.62
2018-12-22T22:51:14.357Z,4.42
2018-12-22T22:53:41.010Z,5.05
2018-12-22T22:56:07.678Z,4.95
2018-12-22T22:58:34.341Z,3.95
2018-12-22T23:01:01.022Z,4.70
2018-12-22T23:03:27.677Z,4.70
2018-12-22T23:05:54.355Z,4.10
2018-12-22T23:08:21.014Z,4.45
2018-12-22T23:10:47.658Z,3.87
2018-12-22T23:13:14.333Z,5.30
2018-12-22T23:15:40.991Z,4.03
2018-12-22T23:18:07.646Z,4.08
2018-12-22T23:20:34.317Z,4.42
2018-12-22T23:23:00.978Z,4.75
2018-12-22T23:25:27.633Z,4.75
2018-12-22T23:27:54.310Z,4.80
2018-12-22T23:30:20.975Z,5.00
2018-12-22T23:32:47.633Z,5.67
2018-12-22T23:35:14.389Z,5.45
2018-12-22T23:37:41.036Z,4.85
2018-12-22T23:40:07.694Z,5.37
2018-12-22T23:42:34.372Z,5.00
2018-12-22T23:45:01.026Z,4.90
2018-12-22T23:47:27.781Z,5.05
2018-12-22T23:49:54.474Z,5.15
2018-12-22T23:52:21.169Z,5.85
2018-12-22T23:54:47.841Z,5.00
2018-12-22T23:57:14.499Z,5.60
2018-12-22T23:59:41.149Z,5.42
